createdAt,value
2018-08-13T00:01:00.270Z,23.12
2018-08-13T00:03:28.037Z,23.13
2018-08-13T00:05:56.332Z,23.11
2018-08-13T00:08:24.357Z,23.11
2018-08-13T00:10:52.533Z,23.11
2018-08-13T00:13:20.295Z,23.11
2018-08-13T00:15:48.018Z,23.11
2018-08-13T00:18:16.041Z,23.11
2018-08-13T00:20:43.805Z,23.11
2018-08-13T00:23:11.560Z,23.10
2018-08-13T00:25:39.298Z,23.09
2018-08-13T00:28:08.431Z,23.10
2018-08-13T00:30:36.513Z,23.07
2018-08-13T00:33:05.137Z,23.08
2018-08-13T00:35:33.187Z,23.08
2018-08-13T00:38:01.391Z,23.07
2018-08-13T00:40:29.095Z,23.07
2018-08-13T00:42:58.194Z,23.07
2018-08-13T00:45:25.893Z,23.06
2018-08-13T00:47:53.619Z,23.06
2018-08-13T00:50:21.430Z,23.06
2018-08-13T00:52:49.405Z,23.06
2018-08-13T00:55:17.108Z,23.06
2018-08-13T00:57:45.426Z,23.06
2018-08-13T01:00:15.511Z,23.04
2018-08-13T01:02:44.308Z,23.05
2018-08-13T01:05:12.416Z,23.03
2018-08-13T01:07:40.125Z,23.04
2018-08-13T01:10:12.289Z,23.02
2018-08-13T01:12:41.013Z,23.01
2018-08-13T01:15:11.173Z,23.02
2018-08-13T01:17:40.066Z,23.01
2018-08-13T01:20:09.872Z,23.01
2018-08-13T01:22:38.116Z,23.00
2018-08-13T01:25:07.381Z,23.00
2018-08-13T01:27:35.421Z,22.99
2018-08-13T01:30:03.265Z,23.00
2018-08-13T01:32:31.559Z,22.99
2018-08-13T01:34:59.702Z,23.00
2018-08-13T01:37:28.006Z,23.00
2018-08-13T01:39:56.476Z,23.00
2018-08-13T01:42:24.700Z,23.00
2018-08-13T01:44:52.477Z,23.00
2018-08-13T01:47:20.214Z,22.99
2018-08-13T01:49:47.991Z,22.98
2018-08-13T01:52:16.720Z,22.98
2018-08-13T01:54:44.425Z,22.99
2018-08-13T01:57:12.162Z,22.98
2018-08-13T01:59:40.079Z,22.98
2018-08-13T02:02:08.085Z,22.98
2018-08-13T02:04:35.818Z,22.98
2018-08-13T02:07:03.898Z,22.99
2018-08-13T02:09:34.196Z,22.98
2018-08-13T02:12:02.878Z,22.99
2018-08-13T02:14:31.078Z,22.98
2018-08-13T02:16:59.143Z,22.97
2018-08-13T02:19:27.478Z,22.98
2018-08-13T02:21:56.187Z,22.98
2018-08-13T02:24:24.020Z,22.97
2018-08-13T02:26:52.329Z,22.97
2018-08-13T02:29:20.706Z,22.97
2018-08-13T02:31:49.233Z,22.97
2018-08-13T02:34:16.942Z,22.97
2018-08-13T02:36:44.662Z,22.95
2018-08-13T02:39:12.594Z,22.95
2018-08-13T02:41:40.906Z,22.95
2018-08-13T02:44:08.706Z,22.95
2018-08-13T02:46:36.750Z,22.96
2018-08-13T02:49:04.573Z,22.95
2018-08-13T02:51:33.533Z,22.94
2018-08-13T02:54:01.726Z,22.94
2018-08-13T02:56:29.418Z,22.94
2018-08-13T02:58:57.327Z,22.93
2018-08-13T03:04:06.592Z,22.94
2018-08-13T03:06:34.334Z,22.94
2018-08-13T03:09:02.002Z,22.94
2018-08-13T03:11:29.745Z,22.93
2018-08-13T03:13:57.975Z,22.93
2018-08-13T03:16:25.969Z,22.92
2018-08-13T03:18:53.650Z,22.93
2018-08-13T03:21:21.397Z,22.91
2018-08-13T03:23:49.100Z,22.91
2018-08-13T03:26:16.756Z,22.90
2018-08-13T03:28:44.479Z,22.90
2018-08-13T03:31:12.441Z,22.91
2018-08-13T03:33:40.242Z,22.91
2018-08-13T03:36:08.138Z,22.90
2018-08-13T03:38:35.829Z,22.90
2018-08-13T03:41:03.558Z,22.91
2018-08-13T03:43:31.298Z,22.90
2018-08-13T03:45:59.908Z,22.89
2018-08-13T03:48:27.883Z,22.90
2018-08-13T03:50:56.017Z,22.89
2018-08-13T03:53:23.736Z,22.89
2018-08-13T03:55:51.401Z,22.90
2018-08-13T03:58:19.146Z,22.89
2018-08-13T04:00:47.103Z,22.88
2018-08-13T04:03:14.849Z,22.88
2018-08-13T04:05:42.551Z,22.88
2018-08-13T04:08:10.485Z,22.89
2018-08-13T04:10:38.465Z,22.88
2018-08-13T04:13:06.789Z,22.88
2018-08-13T04:15:34.497Z,22.87
2018-08-13T04:18:02.602Z,22.88
2018-08-13T04:20:30.672Z,22.88
2018-08-13T04:22:58.387Z,22.87
2018-08-13T04:25:26.105Z,22.87
2018-08-13T04:27:54.099Z,22.88
2018-08-13T04:30:22.263Z,22.88
2018-08-13T04:32:50.119Z,22.87
2018-08-13T04:35:18.070Z,22.87
2018-08-13T04:37:46.904Z,22.86
2018-08-13T04:40:15.737Z,22.85
2018-08-13T04:42:44.735Z,22.87
2018-08-13T04:45:12.872Z,22.88
2018-08-13T04:47:43.585Z,22.88
2018-08-13T04:50:11.267Z,22.88
2018-08-13T04:52:39.043Z,22.88
2018-08-13T04:55:08.453Z,22.88
2018-08-13T04:57:36.121Z,22.66
2018-08-13T05:00:04.716Z,22.89
2018-08-13T05:02:32.483Z,22.89
2018-08-13T05:05:00.184Z,22.90
2018-08-13T05:07:28.277Z,22.90
2018-08-13T05:09:55.939Z,22.89
2018-08-13T05:12:23.639Z,22.90
2018-08-13T05:14:51.406Z,22.90
2018-08-13T05:17:19.629Z,22.90
2018-08-13T05:19:47.273Z,22.91
2018-08-13T05:22:15.380Z,22.90
2018-08-13T05:24:43.118Z,22.92
2018-08-13T05:27:10.814Z,22.92
2018-08-13T05:29:38.516Z,22.93
2018-08-13T05:32:06.996Z,22.94
2018-08-13T05:34:34.681Z,22.94
2018-08-13T05:37:02.377Z,22.92
2018-08-13T05:39:30.099Z,22.93
2018-08-13T05:41:57.836Z,22.94
2018-08-13T05:44:25.554Z,22.95
2018-08-13T05:46:53.321Z,22.96
2018-08-13T05:49:21.096Z,22.98
2018-08-13T05:51:49.228Z,22.99
2018-08-13T05:54:16.967Z,23.00
2018-08-13T05:56:44.632Z,23.00
2018-08-13T05:59:12.880Z,23.02
2018-08-13T06:01:40.792Z,23.02
2018-08-13T06:04:08.692Z,23.02
2018-08-13T06:06:36.384Z,23.02
2018-08-13T06:09:08.033Z,23.03
2018-08-13T06:11:35.720Z,23.02
2018-08-13T06:14:03.414Z,23.02
2018-08-13T06:16:31.094Z,23.02
2018-08-13T06:18:59.038Z,23.04
2018-08-13T06:21:26.750Z,23.06
2018-08-13T06:23:54.380Z,23.10
2018-08-13T06:26:22.327Z,23.12
2018-08-13T06:28:50.031Z,23.14
2018-08-13T06:31:17.721Z,23.13
2018-08-13T06:33:45.662Z,23.12
2018-08-13T06:36:13.287Z,23.11
2018-08-13T06:38:40.949Z,23.10
2018-08-13T06:41:08.574Z,23.12
2018-08-13T06:43:36.349Z,23.13
2018-08-13T06:46:04.316Z,23.16
2018-08-13T06:48:31.956Z,23.17
2018-08-13T06:50:59.668Z,23.19
2018-08-13T06:53:27.631Z,23.21
2018-08-13T06:55:55.808Z,23.20
2018-08-13T06:58:23.490Z,23.24
2018-08-13T07:00:51.449Z,23.25
2018-08-13T07:03:19.474Z,23.28
2018-08-13T07:05:47.717Z,23.29
2018-08-13T07:08:15.369Z,23.30
2018-08-13T07:10:43.312Z,23.33
2018-08-13T07:13:11.036Z,23.34
2018-08-13T07:15:39.325Z,23.36
2018-08-13T07:18:06.967Z,23.37
2018-08-13T07:20:34.725Z,23.39
2018-08-13T07:23:02.410Z,23.39
2018-08-13T07:25:30.343Z,23.39
2018-08-13T07:27:58.057Z,23.41
2018-08-13T07:30:25.668Z,23.43
2018-08-13T07:32:53.384Z,23.44
2018-08-13T07:35:21.041Z,23.43
2018-08-13T07:37:48.753Z,23.43
2018-08-13T07:40:17.083Z,23.43
2018-08-13T07:42:45.377Z,23.44
2018-08-13T07:45:13.290Z,23.44
2018-08-13T07:47:41.093Z,23.48
2018-08-13T07:50:10.351Z,23.51
2018-08-13T07:52:38.011Z,23.52
2018-08-13T07:55:06.041Z,23.53
2018-08-13T07:57:33.677Z,23.55
2018-08-13T08:00:01.714Z,23.56
2018-08-13T08:02:29.592Z,23.57
2018-08-13T08:04:57.831Z,23.57
2018-08-13T08:07:25.518Z,23.56
2018-08-13T08:09:53.737Z,23.55
2018-08-13T08:12:21.400Z,23.54
2018-08-13T08:14:49.242Z,23.53
2018-08-13T08:17:16.906Z,23.54
2018-08-13T08:19:44.613Z,23.53
2018-08-13T08:22:12.666Z,23.52
2018-08-13T08:24:40.326Z,23.52
2018-08-13T08:27:08.383Z,23.51
2018-08-13T08:29:36.170Z,23.51
2018-08-13T08:32:05.238Z,23.51
2018-08-13T08:34:32.862Z,23.50
2018-08-13T08:37:00.560Z,23.49
2018-08-13T08:39:28.189Z,23.49
2018-08-13T08:41:55.878Z,23.50
2018-08-13T08:44:23.601Z,23.52
2018-08-13T08:46:51.514Z,23.51
2018-08-13T08:49:19.166Z,23.52
2018-08-13T08:51:47.144Z,23.51
2018-08-13T08:54:15.512Z,23.52
2018-08-13T08:56:44.337Z,23.52
2018-08-13T08:59:12.308Z,23.53
2018-08-13T09:01:39.976Z,23.53
2018-08-13T09:04:08.648Z,23.54
2018-08-13T09:06:36.766Z,23.56
2018-08-13T09:09:07.775Z,23.57
2018-08-13T09:11:35.445Z,23.58
2018-08-13T09:14:03.737Z,23.61
2018-08-13T09:16:31.684Z,23.62
2018-08-13T09:19:10.690Z,23.64
2018-08-13T09:21:38.630Z,23.65
2018-08-13T09:24:17.861Z,23.67
2018-08-13T09:26:56.616Z,23.70
2018-08-13T09:29:35.564Z,23.74
2018-08-13T09:32:26.713Z,23.78
2018-08-13T09:35:11.669Z,23.84
2018-08-13T09:37:39.345Z,23.88
2018-08-13T09:40:07.604Z,23.93
2018-08-13T09:42:35.562Z,23.99
2018-08-13T09:45:03.545Z,24.03
2018-08-13T09:47:31.229Z,24.09
2018-08-13T09:49:58.902Z,24.14
2018-08-13T09:52:26.555Z,24.18
2018-08-13T09:54:54.514Z,24.23
2018-08-13T09:57:22.243Z,24.28
2018-08-13T09:59:50.152Z,24.32
2018-08-13T10:02:18.150Z,24.38
2018-08-13T10:04:46.405Z,24.41
2018-08-13T10:07:15.122Z,24.40
2018-08-13T10:09:42.769Z,24.40
2018-08-13T10:12:10.452Z,24.40
2018-08-13T10:14:38.383Z,24.39
2018-08-13T10:17:06.011Z,24.35
2018-08-13T10:19:33.914Z,24.34
2018-08-13T10:22:01.677Z,24.33
2018-08-13T10:24:29.414Z,24.32
2018-08-13T10:26:57.169Z,24.30
2018-08-13T10:29:24.878Z,24.31
2018-08-13T10:31:52.535Z,24.32
2018-08-13T10:34:20.153Z,24.33
2018-08-13T10:36:48.219Z,24.33
2018-08-13T10:39:15.888Z,24.34
2018-08-13T10:41:43.791Z,24.32
2018-08-13T10:44:11.705Z,24.30
2018-08-13T10:46:39.358Z,24.27
2018-08-13T10:49:06.993Z,24.24
2018-08-13T10:51:34.641Z,24.21
2018-08-13T10:54:02.280Z,24.17
2018-08-13T10:56:30.209Z,24.15
2018-08-13T10:58:58.183Z,24.13
2018-08-13T11:01:26.111Z,24.12
2018-08-13T11:03:54.410Z,24.14
2018-08-13T11:06:22.067Z,24.14
2018-08-13T11:08:50.035Z,24.14
2018-08-13T11:11:17.737Z,24.15
2018-08-13T11:13:45.385Z,24.15
2018-08-13T11:16:13.364Z,24.15
2018-08-13T11:18:40.998Z,24.15
2018-08-13T11:21:09.137Z,24.13
2018-08-13T11:23:36.792Z,24.13
2018-08-13T11:26:04.792Z,24.13
2018-08-13T11:28:33.243Z,24.14
2018-08-13T11:31:00.933Z,24.16
2018-08-13T11:33:29.253Z,24.19
2018-08-13T11:35:57.166Z,24.21
2018-08-13T11:38:24.787Z,24.25
2018-08-13T11:40:52.729Z,24.25
2018-08-13T11:43:20.378Z,24.28
2018-08-13T11:45:48.042Z,24.28
2018-08-13T11:48:16.049Z,24.26
2018-08-13T11:50:43.685Z,24.25
2018-08-13T11:53:11.739Z,24.23
2018-08-13T11:55:39.425Z,24.22
2018-08-13T11:58:07.107Z,24.21
2018-08-13T12:00:34.730Z,24.19
2018-08-13T12:03:02.433Z,24.18
2018-08-13T12:05:30.263Z,24.15
2018-08-13T12:07:57.963Z,24.15
2018-08-13T12:10:25.584Z,24.11
2018-08-13T12:12:53.558Z,24.10
2018-08-13T12:15:21.192Z,24.08
2018-08-13T12:17:48.849Z,24.06
2018-08-13T12:20:18.361Z,24.05
2018-08-13T12:22:46.642Z,24.03
2018-08-13T12:25:21.353Z,24.02
2018-08-13T12:27:49.130Z,24.02
2018-08-13T12:30:17.062Z,24.01
2018-08-13T12:32:44.783Z,24.01
2018-08-13T12:35:12.404Z,24.01
2018-08-13T12:37:40.009Z,24.02
2018-08-13T12:40:09.134Z,24.03
2018-08-13T12:42:37.323Z,24.06
2018-08-13T12:45:07.540Z,24.06
2018-08-13T12:47:35.201Z,24.07
2018-08-13T12:50:02.902Z,24.07
2018-08-13T12:52:30.551Z,24.06
2018-08-13T12:54:58.199Z,24.02
2018-08-13T12:57:26.244Z,24.01
2018-08-13T12:59:53.925Z,23.96
2018-08-13T13:02:21.595Z,23.98
2018-08-13T13:04:49.293Z,23.97
2018-08-13T13:07:17.583Z,23.96
2018-08-13T13:09:45.216Z,23.93
2018-08-13T13:12:13.112Z,23.92
2018-08-13T13:14:40.845Z,23.89
2018-08-13T13:17:08.749Z,23.90
2018-08-13T13:19:36.402Z,23.89
2018-08-13T13:22:04.102Z,23.89
2018-08-13T13:24:31.774Z,23.90
2018-08-13T13:26:59.786Z,23.91
2018-08-13T13:29:27.805Z,23.93
2018-08-13T13:31:55.472Z,23.93
2018-08-13T13:34:23.149Z,23.96
2018-08-13T13:36:50.829Z,23.98
2018-08-13T13:39:18.857Z,24.03
2018-08-13T13:41:46.732Z,24.08
2018-08-13T13:44:14.943Z,24.13
2018-08-13T13:46:42.634Z,24.17
2018-08-13T13:49:10.582Z,24.19
2018-08-13T13:51:38.377Z,24.21
2018-08-13T13:54:06.415Z,24.23
2018-08-13T13:56:34.416Z,24.25
2018-08-13T13:59:02.054Z,24.26
2018-08-13T14:01:30.092Z,24.29
2018-08-13T14:03:58.145Z,24.32
2018-08-13T14:06:25.810Z,24.34
2018-08-13T14:08:53.426Z,24.38
2018-08-13T14:11:21.414Z,24.40
2018-08-13T14:13:49.139Z,24.42
2018-08-13T14:16:16.877Z,24.46
2018-08-13T14:18:44.819Z,24.51
2018-08-13T14:21:12.441Z,24.54
2018-08-13T14:23:40.404Z,24.57
2018-08-13T14:26:08.033Z,24.57
2018-08-13T14:28:35.835Z,24.55
2018-08-13T14:31:04.062Z,24.51
2018-08-13T14:33:32.073Z,24.46
2018-08-13T14:35:59.774Z,24.43
2018-08-13T14:38:27.418Z,24.44
2018-08-13T14:40:55.369Z,24.48
2018-08-13T14:43:23.342Z,24.54
2018-08-13T14:45:51.300Z,24.59
2018-08-13T14:48:18.933Z,24.70
2018-08-13T14:50:46.604Z,27.36
2018-08-13T14:53:14.926Z,28.08
2018-08-13T14:55:42.894Z,26.69
2018-08-13T14:58:12.757Z,25.94
2018-08-13T15:00:40.862Z,25.45
2018-08-13T15:03:10.430Z,25.18
2018-08-13T15:05:38.721Z,25.04
2018-08-13T15:08:06.655Z,25.08
2018-08-13T15:10:34.651Z,25.40
2018-08-13T15:13:02.885Z,26.04
2018-08-13T15:15:31.028Z,26.16
2018-08-13T15:17:58.755Z,25.94
2018-08-13T15:20:31.280Z,25.63
2018-08-13T15:22:58.984Z,25.39
2018-08-13T15:25:27.305Z,25.25
2018-08-13T15:27:55.130Z,25.18
2018-08-13T15:30:24.028Z,25.17
2018-08-13T15:32:52.463Z,25.19
2018-08-13T15:35:20.424Z,25.23
2018-08-13T15:37:48.422Z,25.41
2018-08-13T15:40:16.061Z,25.64
2018-08-13T15:42:44.336Z,26.66
2018-08-13T15:45:16.514Z,26.83
2018-08-13T15:47:44.350Z,26.43
2018-08-13T15:50:13.617Z,26.06
2018-08-13T15:52:41.481Z,25.76
2018-08-13T15:55:09.216Z,25.57
2018-08-13T15:57:36.951Z,25.45
2018-08-13T16:00:06.269Z,25.33
2018-08-13T16:02:33.910Z,25.23
2018-08-13T16:05:02.118Z,25.17
2018-08-13T16:07:29.771Z,25.08
2018-08-13T16:09:57.649Z,25.02
2018-08-13T16:12:25.964Z,24.94
2018-08-13T16:14:53.976Z,24.87
2018-08-13T16:17:21.577Z,24.81
2018-08-13T16:19:49.246Z,24.77
2018-08-13T16:22:17.089Z,24.71
2018-08-13T16:24:44.705Z,24.67
2018-08-13T16:27:12.391Z,24.63
2018-08-13T16:29:40.355Z,24.58
2018-08-13T16:32:08.413Z,24.54
2018-08-13T16:34:36.095Z,24.53
2018-08-13T16:37:04.601Z,24.50
2018-08-13T16:39:32.301Z,24.47
2018-08-13T16:41:59.997Z,24.46
2018-08-13T16:44:28.244Z,24.45
2018-08-13T16:46:55.878Z,24.43
2018-08-13T16:49:23.885Z,24.40
2018-08-13T16:51:51.986Z,24.38
2018-08-13T16:54:19.920Z,24.36
2018-08-13T16:56:47.661Z,24.34
2018-08-13T16:59:15.294Z,24.32
2018-08-13T17:01:44.001Z,24.29
2018-08-13T17:04:11.772Z,24.28
2018-08-13T17:06:39.848Z,24.25
2018-08-13T17:09:09.135Z,24.23
2018-08-13T17:11:37.676Z,24.21
2018-08-13T17:14:09.735Z,24.19
2018-08-13T17:16:39.405Z,24.18
2018-08-13T17:19:07.017Z,24.17
2018-08-13T17:21:34.672Z,24.16
2018-08-13T17:24:02.921Z,24.13
2018-08-13T17:26:30.971Z,24.12
2018-08-13T17:28:58.862Z,24.11
2018-08-13T17:31:26.897Z,24.10
2018-08-13T17:33:55.247Z,24.10
2018-08-13T17:36:22.944Z,24.09
2018-08-13T17:38:50.576Z,24.08
2018-08-13T17:41:18.245Z,24.07
2018-08-13T17:43:45.902Z,24.07
2018-08-13T17:46:13.802Z,24.06
2018-08-13T17:48:41.448Z,24.04
2018-08-13T17:51:09.405Z,24.03
2018-08-13T17:53:37.085Z,24.00
2018-08-13T17:56:05.120Z,23.98
2018-08-13T17:58:32.836Z,23.97
2018-08-13T18:01:00.477Z,23.95
2018-08-13T18:03:28.114Z,23.93
2018-08-13T18:05:56.141Z,23.91
2018-08-13T18:08:23.871Z,23.90
2018-08-13T18:10:51.782Z,23.89
2018-08-13T18:13:19.419Z,23.86
2018-08-13T18:15:47.093Z,23.83
2018-08-13T18:18:14.758Z,23.82
2018-08-13T18:20:42.408Z,23.81
2018-08-13T18:23:10.056Z,23.79
2018-08-13T18:25:38.438Z,23.77
2018-08-13T18:28:06.315Z,23.75
2018-08-13T18:30:34.010Z,23.73
2018-08-13T18:33:01.725Z,23.71
2018-08-13T18:35:29.418Z,23.68
2018-08-13T18:37:57.076Z,23.67
2018-08-13T18:40:28.192Z,23.65
2018-08-13T18:42:56.470Z,23.65
2018-08-13T18:45:24.365Z,23.63
2018-08-13T18:47:52.049Z,23.62
2018-08-13T18:50:20.667Z,23.61
2018-08-13T18:52:48.387Z,23.60
2018-08-13T18:55:18.052Z,23.59
2018-08-13T18:57:46.588Z,23.58
2018-08-13T19:00:17.143Z,23.57
2018-08-13T19:02:44.805Z,23.56
2018-08-13T19:05:13.829Z,23.55
2018-08-13T19:07:42.130Z,23.55
2018-08-13T19:10:11.758Z,23.55
2018-08-13T19:12:39.467Z,23.53
2018-08-13T19:15:09.214Z,23.53
2018-08-13T19:17:36.863Z,23.53
2018-08-13T19:20:06.103Z,23.54
2018-08-13T19:22:33.811Z,23.38
2018-08-13T19:25:01.775Z,23.16
2018-08-13T19:27:29.521Z,22.96
2018-08-13T19:29:58.403Z,22.84
2018-08-13T19:32:26.117Z,22.80
2018-08-13T19:34:54.213Z,22.82
2018-08-13T19:37:21.951Z,22.87
2018-08-13T19:39:49.685Z,22.90
2018-08-13T19:42:17.517Z,22.88
2018-08-13T19:44:46.064Z,22.82
2018-08-13T19:47:14.407Z,22.74
2018-08-13T19:49:42.322Z,22.75
2018-08-13T19:52:10.239Z,22.73
2018-08-13T19:54:38.077Z,22.72
2018-08-13T19:57:06.077Z,22.72
2018-08-13T19:59:33.847Z,22.65
2018-08-13T20:02:01.703Z,22.62
2018-08-13T20:04:29.645Z,22.67
2018-08-13T20:06:57.603Z,22.64
2018-08-13T20:09:25.513Z,22.55
2018-08-13T20:11:54.186Z,22.52
2018-08-13T20:14:23.121Z,22.48
2018-08-13T20:16:51.545Z,22.48
2018-08-13T20:19:19.415Z,22.52
2018-08-13T20:21:47.451Z,22.52
2018-08-13T20:24:15.408Z,22.49
2018-08-13T20:26:43.110Z,22.44
2018-08-13T20:29:12.092Z,22.36
2018-08-13T20:31:40.104Z,22.35
2018-08-13T20:34:08.212Z,22.33
2018-08-13T20:36:36.280Z,22.35
2018-08-13T20:39:08.065Z,22.43
2018-08-13T20:41:35.988Z,22.46
2018-08-13T20:44:04.171Z,22.40
2018-08-13T20:46:32.068Z,22.42
2018-08-13T20:48:59.932Z,22.46
2018-08-13T20:51:28.209Z,22.46
2018-08-13T20:53:56.357Z,22.49
2018-08-13T20:56:24.225Z,22.51
2018-08-13T20:58:51.914Z,22.47
2018-08-13T21:01:19.795Z,22.46
2018-08-13T21:03:47.885Z,22.44
2018-08-13T21:06:16.010Z,22.42
2018-08-13T21:08:43.706Z,22.49
2018-08-13T21:11:11.571Z,22.48
2018-08-13T21:13:39.563Z,22.58
2018-08-13T21:16:07.576Z,22.65
2018-08-13T21:18:35.317Z,22.70
2018-08-13T21:21:03.193Z,22.73
2018-08-13T21:23:31.045Z,22.73
2018-08-13T21:25:59.095Z,22.78
2018-08-13T21:28:27.916Z,22.73
2018-08-13T21:30:55.980Z,22.72
2018-08-13T21:33:26.066Z,22.78
2018-08-13T21:35:55.175Z,22.80
2018-08-13T21:38:23.111Z,22.84
2018-08-13T21:40:51.086Z,22.78
2018-08-13T21:43:18.899Z,22.78
2018-08-13T21:45:47.338Z,22.78
2018-08-13T21:48:15.198Z,22.79
2018-08-13T21:50:43.195Z,22.80
2018-08-13T21:53:10.994Z,22.82
2018-08-13T21:55:38.965Z,22.82
2018-08-13T21:58:06.745Z,22.76
2018-08-13T22:00:40.524Z,22.75
2018-08-13T22:03:09.460Z,22.73
2018-08-13T22:05:37.289Z,22.75
2018-08-13T22:08:05.266Z,22.72
2018-08-13T22:10:33.189Z,22.68
2018-08-13T22:13:00.970Z,22.67
2018-08-13T22:15:29.792Z,22.63
2018-08-13T22:18:00.184Z,22.66
2018-08-13T22:20:29.223Z,22.62
2018-08-13T22:22:58.158Z,22.66
2018-08-13T22:25:30.778Z,22.64
2018-08-13T22:27:58.954Z,22.65
2018-08-13T22:30:27.622Z,22.62
2018-08-13T22:32:55.868Z,22.58
2018-08-13T22:35:24.254Z,22.56
2018-08-13T22:37:52.447Z,22.53
2018-08-13T22:40:21.325Z,22.47
2018-08-13T22:42:49.083Z,22.44
2018-08-13T22:45:18.857Z,22.45
2018-08-13T22:47:46.831Z,22.49
2018-08-13T22:50:14.557Z,22.54
2018-08-13T22:52:42.520Z,22.50
2018-08-13T22:55:12.272Z,22.43
2018-08-13T22:57:40.044Z,22.43
2018-08-13T23:00:09.749Z,22.47
2018-08-13T23:02:37.807Z,22.44
2018-08-13T23:05:08.562Z,22.46
2018-08-13T23:07:36.838Z,22.48
2018-08-13T23:10:05.182Z,22.49
2018-08-13T23:12:33.241Z,22.48
2018-08-13T23:15:01.036Z,22.47
2018-08-13T23:17:28.837Z,22.44
2018-08-13T23:19:56.594Z,22.44
2018-08-13T23:22:52.153Z,22.43
2018-08-13T23:25:20.068Z,22.36
2018-08-13T23:27:48.869Z,22.38
2018-08-13T23:30:16.721Z,22.42
2018-08-13T23:32:46.045Z,22.44
2018-08-13T23:35:14.321Z,22.44
2018-08-13T23:37:42.034Z,22.44
2018-08-13T23:40:10.093Z,22.38
2018-08-13T23:42:37.959Z,22.39
2018-08-13T23:45:07.372Z,22.38
2018-08-13T23:47:35.093Z,22.40
2018-08-13T23:50:02.944Z,22.38
2018-08-13T23:52:30.565Z,22.34
2018-08-13T23:54:58.236Z,22.31
2018-08-13T23:57:26.092Z,22.28
2018-08-13T23:59:53.746Z,22.27
